Aérodrome :
LOGIN :

S'inscrire | Disclaimer

   EN    FR    IT 

 










Légende :    VFR   VFR Marginal   IFR   IFR Intensif   IFR Très Intensif
Visi : 
Plafond : 
>= 8 km
>= 3000ft
5 à 8 km
1000 à 3000 ft
1500m à 5 km
500 à 1000 ft
800 à 1500m
200 à 500 ft
< 800m
< 200 ft
Symboles :   Orages  Brouillard  Fortes neiges  Fortes précipitations  Vent > 20 kt
SIGMETs :   Divers  Orages  Givrage  Turbulence  Onde Orograph.  Cendres Volcan.






- Altitude de l'aérodrome : 306 ft
- Code IATA : EMA


EGNX - Nottingham East Midlands

DERNIER METAR :
  • 151320Z 21008KT 9999 BKN020 12/09 Q1003

METARs EXPIRÉS :
  • 151250Z 21006KT 9999 FEW010 BKN018 12/09 Q1003
  • 151150Z 22007KT 9999 FEW007 BKN012 11/09 Q1003
  • 151120Z 23006KT 9999 BKN007 BKN015 11/10 Q1003
  • 151050Z 22008KT 8000 BKN005 BKN017 11/10 Q1003

TAF TAF EGNX
Valide du 15 à 12h jusqu'au 16 à 12h UTC


151106Z 1512/1612 23008KT 9000 BKN005
TEMPO 1512/1514 9999 FEW010 SCT025
BECMG 1514/1517 BKN010
TEMPO 1514/1517 9999
BECMG 1517/1520 9999 SCT020
BECMG 1600/1603 17012KT BKN014
TEMPO 1603/1611 6000 RA BKN009
PROB30
TEMPO 1604/1607 4000 +RA BKN004
BECMG 1608/1611 27008KT
ATIS : +44 1332 852 852 (ext 3201)



MET'MAP, la Météo Aéronautique d'un coup d'oeil ! - Copyright ORBIFLY Décembre 2007 - Disclaimer

ORBIFLY MET'MAP TEAM :

Programmation & Développement : Alexandra Zaïnal
Conception & Développement : Baudouin d'Aumeries
Co-Programmation & Développement : Marc-Olivier Méhu
Soutien technique & logistique : Manuel Goepfert

Contact : metmap@orbifly.com




SOURCES & CREDITS :

   NOAA